Time;durP1;ratioP1;P1;durP2;ratioP2;P2;SDS_P1;SDS_P2;PMS_P1;PMS_P2;Temp;Humidity;BMP_temperature;BMP_pressure;BME280_temperature;BME280_humidity;BME280_pressure;Samples;Min_cycle;Max_cycle;Signal;HPM_P1;HPM_P2
2023/04/15 00:00:19;;;;;;;2.25;1.55;;;9.80;99.90;;;;;;1889418;75;21118;-84
2023/04/15 00:03:11;;;;;;;2.25;1.60;;;9.80;99.90;;;;;;1877392;75;21106;-84
2023/04/15 00:08:46;;;;;;;4.20;2.05;;;9.80;99.90;;;;;;1947638;72;22598;-82
2023/04/15 00:11:37;;;;;;;2.72;2.00;;;9.80;99.90;;;;;;1921499;73;21574;-85
2023/04/15 00:14:29;;;;;;;2.27;1.87;;;9.80;99.90;;;;;;1927930;73;21133;-83
2023/04/15 00:17:20;;;;;;;2.70;1.70;;;9.80;99.90;;;;;;1922831;73;21129;-83
2023/04/15 00:22:52;;;;;;;2.70;1.80;;;9.80;99.90;;;;;;1955017;72;22197;-82
2023/04/15 00:25:44;;;;;;;2.65;1.57;;;9.80;99.90;;;;;;1920780;73;21126;-84
2023/04/15 00:28:35;;;;;;;2.83;1.82;;;9.80;99.90;;;;;;1923237;73;21084;-82
2023/04/15 00:34:07;;;;;;;2.30;1.82;;;9.80;99.90;;;;;;1931414;72;22264;-83
2023/04/15 00:36:58;;;;;;;2.17;1.82;;;9.70;99.90;;;;;;1899064;75;21099;-83
2023/04/15 00:42:29;;;;;;;2.08;1.40;;;9.80;99.90;;;;;;1945434;72;22228;-82
2023/04/15 00:45:21;;;;;;;2.70;1.55;;;9.80;99.90;;;;;;1922693;73;21058;-84
2023/04/15 00:48:12;;;;;;;2.33;1.65;;;9.70;99.90;;;;;;1929918;73;21081;-83
2023/04/15 00:51:03;;;;;;;2.55;1.70;;;9.70;99.90;;;;;;1922128;73;21208;-83
2023/04/15 00:53:55;;;;;;;2.45;1.70;;;9.70;99.90;;;;;;1915512;73;21270;-83
2023/04/15 00:56:46;;;;;;;1.35;1.15;;;9.70;99.90;;;;;;1920214;73;21110;-83
2023/04/15 01:02:23;;;;;;;2.10;1.42;;;9.70;99.90;;;;;;1948760;72;22182;-85
2023/04/15 01:08:02;;;;;;;2.65;1.72;;;9.80;99.90;;;;;;1968845;72;22151;-83
2023/04/15 01:10:54;;;;;;;1.62;1.32;;;9.80;99.90;;;;;;1912990;73;21180;-83
2023/04/15 01:13:46;;;;;;;1.77;1.52;;;9.80;99.90;;;;;;1915778;74;21068;-85
2023/04/15 01:16:38;;;;;;;2.40;1.40;;;9.80;99.90;;;;;;1921549;74;21132;-83
2023/04/15 01:19:30;;;;;;;2.45;1.50;;;9.80;99.90;;;;;;1904899;74;21059;-83
2023/04/15 01:22:22;;;;;;;1.75;1.20;;;9.80;99.90;;;;;;1917091;75;21108;-84
2023/04/15 01:27:52;;;;;;;2.47;1.82;;;9.80;99.90;;;;;;1916116;72;22383;-82
2023/04/15 01:33:22;;;;;;;1.90;1.67;;;9.70;99.90;;;;;;1949752;72;22305;-82
2023/04/15 01:36:13;;;;;;;2.10;1.30;;;9.70;99.90;;;;;;1914116;75;21437;-82
2023/04/15 01:41:44;;;;;;;1.62;1.17;;;9.80;99.90;;;;;;1937685;72;22706;-83
2023/04/15 01:47:13;;;;;;;2.55;1.45;;;9.50;99.90;;;;;;1933633;72;22278;-84
2023/04/15 01:52:43;;;;;;;2.65;2.10;;;9.50;99.90;;;;;;1935921;72;22172;-82
2023/04/15 01:55:34;;;;;;;2.33;1.22;;;9.50;99.90;;;;;;1882626;75;21105;-84
2023/04/15 01:58:26;;;;;;;1.62;1.40;;;9.50;99.90;;;;;;1886792;75;21086;-84
2023/04/15 02:01:18;;;;;;;3.45;1.72;;;9.50;99.90;;;;;;1890668;75;21663;-83
2023/04/15 02:06:49;;;;;;;3.62;2.30;;;9.50;99.90;;;;;;1927355;72;22262;-85
2023/04/15 02:12:19;;;;;;;2.70;1.98;;;9.40;99.90;;;;;;1940051;72;22205;-83
2023/04/15 02:15:12;;;;;;;2.02;1.80;;;9.40;99.90;;;;;;1893349;75;21171;-83
2023/04/15 02:18:06;;;;;;;2.42;1.70;;;9.50;99.90;;;;;;1883881;75;21074;-83
2023/04/15 02:20:58;;;;;;;2.40;1.80;;;9.50;99.90;;;;;;1892078;75;21219;-83
2023/04/15 02:26:31;;;;;;;2.22;1.98;;;9.60;99.90;;;;;;1934166;72;22182;-82
2023/04/15 02:29:22;;;;;;;2.33;1.30;;;9.50;99.90;;;;;;1887481;74;21264;-83
2023/04/15 02:32:13;;;;;;;2.45;1.50;;;9.40;99.90;;;;;;1894702;75;21219;-83
2023/04/15 02:37:49;;;;;;;2.33;1.60;;;9.30;99.90;;;;;;1940208;72;22244;-84
2023/04/15 02:40:41;;;;;;;2.05;1.70;;;9.30;99.90;;;;;;1887593;75;21116;-84
2023/04/15 02:43:35;;;;;;;1.85;1.50;;;9.40;99.90;;;;;;1882760;75;21180;-84
2023/04/15 02:46:27;;;;;;;1.47;1.20;;;9.40;99.90;;;;;;1885030;75;21097;-83
2023/04/15 02:49:19;;;;;;;1.45;1.35;;;9.50;99.90;;;;;;1875650;75;21184;-83
2023/04/15 02:54:50;;;;;;;1.87;0.65;;;9.50;99.90;;;;;;1934058;72;22652;-82
2023/04/15 03:00:19;;;;;;;1.60;0.90;;;9.70;99.90;;;;;;1947465;72;22351;-83
2023/04/15 03:05:52;;;;;;;1.85;0.80;;;9.60;99.90;;;;;;1928281;72;22664;-85
2023/04/15 03:08:43;;;;;;;1.07;0.70;;;9.50;99.90;;;;;;1886842;75;21200;-83
2023/04/15 03:14:16;;;;;;;0.82;0.80;;;9.50;99.90;;;;;;1945925;72;22740;-82
2023/04/15 03:17:09;;;;;;;1.60;0.68;;;9.50;99.90;;;;;;1878857;75;21157;-82
2023/04/15 03:20:01;;;;;;;2.12;0.75;;;9.40;99.90;;;;;;1900655;75;21522;-85
2023/04/15 03:22:53;;;;;;;1.45;0.65;;;9.30;99.90;;;;;;1890125;75;21091;-83
2023/04/15 03:28:26;;;;;;;1.72;0.75;;;9.40;99.90;;;;;;1932764;72;22146;-83
2023/04/15 03:31:18;;;;;;;0.65;0.55;;;9.40;99.90;;;;;;1904532;75;21091;-85
2023/04/15 03:34:10;;;;;;;0.95;0.50;;;9.50;99.90;;;;;;1900892;75;21121;-83
2023/04/15 03:37:01;;;;;;;1.35;0.95;;;9.50;99.90;;;;;;1886476;75;21082;-83
2023/04/15 03:39:53;;;;;;;1.07;0.70;;;9.40;99.90;;;;;;1876682;75;21066;-83
2023/04/15 03:42:44;;;;;;;2.35;0.90;;;9.40;99.90;;;;;;1909647;75;21180;-83
2023/04/15 03:48:14;;;;;;;4.10;1.20;;;9.30;99.90;;;;;;1920101;72;22204;-82
2023/04/15 03:51:07;;;;;;;1.10;0.93;;;9.30;99.90;;;;;;1885617;75;21114;-83
2023/04/15 03:53:58;;;;;;;2.70;1.00;;;9.40;99.90;;;;;;1904573;75;22248;-82
2023/04/15 03:56:50;;;;;;;1.50;1.05;;;9.40;99.90;;;;;;1887771;75;21197;-82
2023/04/15 04:02:21;;;;;;;1.60;1.10;;;9.40;99.90;;;;;;1933447;72;22187;-83
2023/04/15 04:07:57;;;;;;;2.27;1.20;;;9.40;99.90;;;;;;1944137;72;22142;-82
2023/04/15 04:10:48;;;;;;;1.20;1.00;;;9.50;99.90;;;;;;1892128;75;21102;-82
2023/04/15 04:13:40;;;;;;;1.45;0.95;;;9.50;99.90;;;;;;1879730;75;21129;-84
2023/04/15 04:19:13;;;;;;;2.08;0.90;;;9.50;99.90;;;;;;1947053;72;22291;-82
2023/04/15 04:22:05;;;;;;;1.52;1.00;;;9.60;99.90;;;;;;1924402;74;21142;-82
2023/04/15 04:24:58;;;;;;;1.60;1.00;;;9.60;99.90;;;;;;1923489;74;21138;-82
2023/04/15 04:27:49;;;;;;;1.72;1.17;;;9.50;99.90;;;;;;1922232;74;21131;-82
2023/04/15 04:30:40;;;;;;;1.82;1.07;;;9.50;99.90;;;;;;1916666;74;21094;-85
2023/04/15 04:33:32;;;;;;;1.52;1.07;;;9.40;99.90;;;;;;1914276;74;21106;-83
2023/04/15 04:36:23;;;;;;;1.00;0.80;;;9.40;99.90;;;;;;1932706;74;21474;-83
2023/04/15 04:39:14;;;;;;;1.85;1.00;;;9.40;99.90;;;;;;1926329;74;21160;-82
2023/04/15 04:42:06;;;;;;;1.37;0.90;;;9.30;99.90;;;;;;1917831;74;21229;-83
2023/04/15 04:47:35;;;;;;;0.98;0.88;;;9.30;99.90;;;;;;1945421;72;22243;-84
2023/04/15 04:53:06;;;;;;;2.40;1.00;;;9.50;99.90;;;;;;1934144;72;22738;-85
2023/04/15 04:55:58;;;;;;;1.98;1.00;;;9.40;99.90;;;;;;1880293;75;21107;-85
2023/04/15 04:58:50;;;;;;;1.30;1.00;;;9.40;99.90;;;;;;1882577;75;21140;-83
2023/04/15 05:01:41;;;;;;;2.10;1.17;;;9.50;99.90;;;;;;1898114;75;21177;-83
2023/04/15 05:04:33;;;;;;;2.62;1.27;;;9.40;99.90;;;;;;1876909;75;21212;-83
2023/04/15 05:10:07;;;;;;;1.50;1.15;;;9.30;99.90;;;;;;1937367;72;22197;-85
2023/04/15 05:12:58;;;;;;;1.20;0.90;;;9.30;99.90;;;;;;1882592;75;21109;-83
2023/04/15 05:15:50;;;;;;;1.25;0.80;;;9.30;99.90;;;;;;1885242;75;21257;-83
2023/04/15 05:18:41;;;;;;;2.02;1.00;;;9.30;99.90;;;;;;1891616;75;21059;-83
2023/04/15 05:21:33;;;;;;;1.42;1.00;;;9.30;99.90;;;;;;1885646;75;21106;-83
2023/04/15 05:27:07;;;;;;;1.47;0.90;;;9.20;99.90;;;;;;1931669;72;22143;-82
2023/04/15 05:29:58;;;;;;;2.30;1.30;;;9.20;99.90;;;;;;1887130;75;21179;-84
2023/04/15 05:32:50;;;;;;;4.10;1.70;;;9.10;99.90;;;;;;1904546;73;21144;-84
2023/04/15 05:38:22;;;;;;;5.92;1.75;;;9.20;99.90;;;;;;1924572;72;22244;-82
2023/04/15 05:43:55;;;;;;;1.82;1.22;;;9.30;99.90;;;;;;1947823;72;22204;-79
2023/04/15 05:46:46;;;;;;;2.37;1.82;;;9.20;99.90;;;;;;1929008;73;21126;-81
2023/04/15 05:52:17;;;;;;;1.80;1.60;;;9.20;99.90;;;;;;1946908;72;22159;-79
2023/04/15 05:57:48;;;;;;;3.35;1.57;;;9.20;99.90;;;;;;1944742;72;22242;-81
2023/04/15 06:00:39;;;;;;;2.20;1.25;;;9.30;99.90;;;;;;1897344;75;21636;-80
2023/04/15 06:03:31;;;;;;;1.55;1.15;;;9.20;99.90;;;;;;1883806;75;21062;-80
2023/04/15 06:06:22;;;;;;;1.60;1.22;;;9.20;99.90;;;;;;1890468;75;21687;-80
2023/04/15 06:09:13;;;;;;;2.35;1.10;;;9.20;99.90;;;;;;1874976;75;21118;-80
2023/04/15 06:12:10;;;;;;;1.82;1.10;;;9.30;99.90;;;;;;1894787;75;21117;-80
2023/04/15 06:17:36;;;;;;;3.10;1.30;;;9.40;99.90;;;;;;1962311;72;22250;-81
2023/04/15 06:23:06;;;;;;;1.10;0.98;;;9.50;99.90;;;;;;1927171;72;22197;-79
2023/04/15 06:25:57;;;;;;;1.35;1.10;;;9.60;99.90;;;;;;1904593;75;21178;-80
2023/04/15 06:28:49;;;;;;;1.92;1.12;;;9.60;99.90;;;;;;1900496;74;21618;-80
2023/04/15 06:34:18;;;;;;;1.45;0.80;;;9.60;99.90;;;;;;1934417;72;22279;-81
2023/04/15 06:37:14;;;;;;;2.47;1.10;;;9.60;99.90;;;;;;1937859;73;21093;-79
2023/04/15 06:40:03;;;;;;;1.82;1.12;;;9.50;99.90;;;;;;1944705;73;21081;-79
2023/04/15 06:42:55;;;;;;;1.82;1.30;;;9.50;99.90;;;;;;1928335;73;21178;-80
2023/04/15 06:45:47;;;;;;;1.60;1.20;;;9.50;99.90;;;;;;1924049;73;21125;-81
2023/04/15 06:48:38;;;;;;;3.58;1.55;;;9.60;99.90;;;;;;1935053;73;21124;-80
2023/04/15 06:51:30;;;;;;;1.47;0.90;;;9.70;99.90;;;;;;1927695;73;21061;-79
2023/04/15 06:54:21;;;;;;;2.10;0.90;;;9.60;99.90;;;;;;1935284;73;21275;-79
2023/04/15 06:59:53;;;;;;;2.00;1.00;;;9.50;99.90;;;;;;1960958;72;22357;-78
2023/04/15 07:02:45;;;;;;;2.15;1.05;;;9.50;99.90;;;;;;1940329;73;21145;-80
2023/04/15 07:05:37;;;;;;;1.45;1.10;;;9.50;99.90;;;;;;1935543;73;21044;-79
2023/04/15 07:11:08;;;;;;;1.20;0.75;;;9.40;99.90;;;;;;1921305;72;22578;-81
2023/04/15 07:14:02;;;;;;;2.05;0.90;;;9.20;99.90;;;;;;1916039;75;21059;-81
2023/04/15 07:16:53;;;;;;;1.72;0.85;;;9.30;99.90;;;;;;1913695;75;21089;-81
2023/04/15 07:22:28;;;;;;;1.52;0.90;;;9.30;99.90;;;;;;1922355;72;22251;-81
2023/04/15 07:25:19;;;;;;;0.80;0.80;;;9.40;99.90;;;;;;1903527;73;21125;-81
2023/04/15 07:28:11;;;;;;;3.27;1.00;;;9.40;99.90;;;;;;1909849;73;21113;-79
2023/04/15 07:33:48;;;;;;;1.90;1.00;;;9.60;99.90;;;;;;1931413;72;22142;-81
2023/04/15 07:36:40;;;;;;;1.67;1.20;;;9.80;99.90;;;;;;1890845;75;21578;-80
2023/04/15 07:39:31;;;;;;;0.90;0.90;;;9.90;99.90;;;;;;1897315;75;21063;-80
2023/04/15 07:42:23;;;;;;;1.80;1.10;;;10.10;99.90;;;;;;1902525;75;21114;-80
2023/04/15 07:45:15;;;;;;;0.80;0.80;;;10.30;99.90;;;;;;1902430;75;21174;-80
2023/04/15 07:48:07;;;;;;;0.85;0.72;;;10.30;99.90;;;;;;1894409;75;21052;-80
2023/04/15 07:51:00;;;;;;;0.78;0.50;;;10.10;99.90;;;;;;1894712;75;21180;-80
2023/04/15 07:53:51;;;;;;;0.20;0.10;;;9.70;99.90;;;;;;1899088;75;21168;-80
2023/04/15 07:59:22;;;;;;;0.30;0.10;;;9.50;99.90;;;;;;1947092;72;22244;-83
2023/04/15 08:02:14;;;;;;;0.30;0.20;;;9.50;99.90;;;;;;1906822;75;21103;-84
2023/04/15 08:07:45;;;;;;;0.20;0.10;;;9.60;99.90;;;;;;1936312;72;22208;-78
2023/04/15 08:10:37;;;;;;;0.30;0.13;;;9.70;99.90;;;;;;1903762;75;21657;-78
2023/04/15 08:13:29;;;;;;;1.27;0.30;;;9.60;99.90;;;;;;1892686;75;21125;-78
2023/04/15 08:19:00;;;;;;;0.80;0.30;;;9.50;99.90;;;;;;1945544;72;22139;-78
2023/04/15 08:27:12;;;;;;;0.50;0.30;;;9.90;99.90;;;;;;1926156;72;22225;-77
2023/04/15 08:32:47;;;;;;;0.20;0.10;;;10.00;99.90;;;;;;1941662;72;22151;-77
2023/04/15 08:35:38;;;;;;;0.68;0.20;;;10.00;99.90;;;;;;1902949;75;21146;-75
2023/04/15 08:38:30;;;;;;;0.53;0.20;;;10.00;99.90;;;;;;1884190;75;21106;-75
2023/04/15 08:41:24;;;;;;;0.20;0.17;;;10.10;99.90;;;;;;1902959;75;21165;-76
2023/04/15 08:44:16;;;;;;;0.20;0.10;;;10.30;99.90;;;;;;1899601;74;21143;-76
2023/04/15 08:49:55;;;;;;;0.60;0.10;;;10.50;99.90;;;;;;1961419;72;22558;-77
2023/04/15 08:52:46;;;;;;;0.60;0.10;;;10.60;99.90;;;;;;1926599;74;21192;-77
2023/04/15 08:55:39;;;;;;;0.65;0.28;;;10.60;99.90;;;;;;1918567;74;21141;-76
2023/04/15 08:58:31;;;;;;;0.42;0.20;;;10.70;99.90;;;;;;1938272;73;21090;-76
2023/04/15 09:01:24;;;;;;;1.07;0.17;;;10.70;99.90;;;;;;1955402;72;21121;-76
2023/04/15 09:04:16;;;;;;;0.60;0.10;;;10.70;99.90;;;;;;1931916;72;21047;-76
2023/04/15 09:07:08;;;;;;;0.30;0.20;;;10.70;99.90;;;;;;1913386;74;21172;-76
2023/04/15 09:10:00;;;;;;;1.40;0.28;;;10.80;99.90;;;;;;1920337;74;21083;-78
2023/04/15 09:12:52;;;;;;;1.92;0.40;;;10.80;99.90;;;;;;1916582;75;21327;-77
2023/04/15 09:15:43;;;;;;;0.90;0.20;;;11.00;99.90;;;;;;1931462;74;21086;-77
2023/04/15 09:18:37;;;;;;;2.08;0.40;;;11.10;99.90;;;;;;1943493;74;21163;-77
2023/04/15 09:21:30;;;;;;;1.87;0.30;;;11.10;99.90;;;;;;1939301;74;21153;-77
2023/04/15 09:24:22;;;;;;;0.85;0.25;;;11.20;99.90;;;;;;1918283;74;21100;-77
2023/04/15 09:27:16;;;;;;;0.20;0.20;;;11.40;99.90;;;;;;1940014;74;21161;-77
2023/04/15 09:30:12;;;;;;;2.08;0.20;;;11.40;99.90;;;;;;1953000;73;21102;-77
2023/04/15 09:33:06;;;;;;;0.25;0.10;;;11.40;99.90;;;;;;1944799;74;21094;-76
2023/04/15 09:36:01;;;;;;;0.68;0.30;;;11.40;99.90;;;;;;1933472;74;21102;-76
2023/04/15 09:38:57;;;;;;;0.40;0.20;;;11.40;99.90;;;;;;1945449;73;21506;-75
2023/04/15 09:41:50;;;;;;;0.42;0.10;;;11.60;99.90;;;;;;1937276;73;21184;-77
2023/04/15 09:44:41;;;;;;;0.65;0.20;;;11.60;99.90;;;;;;1940985;74;21144;-77
2023/04/15 09:47:33;;;;;;;0.68;0.20;;;11.60;99.90;;;;;;1931088;74;21091;-77
2023/04/15 09:50:29;;;;;;;1.85;0.20;;;11.60;99.90;;;;;;1921933;74;21151;-77
2023/04/15 09:53:22;;;;;;;0.60;0.20;;;11.60;99.90;;;;;;1914856;74;21083;-76
2023/04/15 09:56:14;;;;;;;1.07;0.20;;;11.20;99.90;;;;;;1916028;74;21164;-76
2023/04/15 09:59:06;;;;;;;0.68;0.17;;;10.40;99.90;;;;;;1916252;74;21766;-78
2023/04/15 10:01:58;;;;;;;1.00;0.40;;;9.40;99.90;;;;;;1934289;74;21152;-77
2023/04/15 10:04:50;;;;;;;1.02;0.10;;;8.70;99.90;;;;;;1917077;74;21099;-78
2023/04/15 10:07:42;;;;;;;0.08;0.00;;;8.20;99.90;;;;;;1904464;75;21118;-79
2023/04/15 10:10:33;;;;;;;0.37;0.20;;;8.20;99.90;;;;;;1925491;74;21087;-79
2023/04/15 10:13:28;;;;;;;0.15;0.00;;;8.20;99.90;;;;;;1919958;74;21141;-79
2023/04/15 10:16:21;;;;;;;0.50;0.20;;;8.20;99.90;;;;;;1931126;74;21142;-78
2023/04/15 10:19:16;;;;;;;0.10;0.00;;;8.40;99.90;;;;;;1885737;75;21193;-78
2023/04/15 10:22:08;;;;;;;0.17;0.10;;;8.60;99.90;;;;;;1922904;74;21426;-77
2023/04/15 10:25:03;;;;;;;0.28;0.20;;;8.80;99.90;;;;;;1923673;74;21099;-77
2023/04/15 10:27:55;;;;;;;0.80;0.10;;;9.00;99.90;;;;;;1927030;74;21099;-77
2023/04/15 10:30:48;;;;;;;0.85;0.10;;;9.20;99.90;;;;;;1910481;74;21064;-77
2023/04/15 10:33:41;;;;;;;0.30;0.20;;;9.30;99.90;;;;;;1904972;75;21180;-77
2023/04/15 10:36:33;;;;;;;0.75;0.10;;;9.50;99.90;;;;;;1914879;74;21070;-77
2023/04/15 10:42:36;;;;;;;0.10;0.10;;;9.50;99.90;;;;;;1956975;72;22170;-78
2023/04/15 10:45:29;;;;;;;0.62;0.20;;;9.80;99.90;;;;;;1889734;75;21103;-79
2023/04/15 10:48:20;;;;;;;0.53;0.17;;;9.90;99.90;;;;;;1899222;75;21629;-76
2023/04/15 10:51:15;;;;;;;0.20;0.17;;;10.10;99.90;;;;;;1882736;75;21144;-76
2023/04/15 10:54:11;;;;;;;0.42;0.20;;;10.30;99.90;;;;;;1882834;75;21052;-76
2023/04/15 10:57:11;;;;;;;0.53;0.30;;;10.20;99.90;;;;;;1884311;75;21106;-76
2023/04/15 11:00:10;;;;;;;1.37;0.60;;;10.30;99.90;;;;;;1888935;75;21110;-75
2023/04/15 11:03:07;;;;;;;1.05;0.30;;;10.40;99.90;;;;;;1885038;75;21079;-76
2023/04/15 11:05:59;;;;;;;2.77;0.40;;;10.60;99.90;;;;;;1873415;75;21211;-76
2023/04/15 11:09:01;;;;;;;0.30;0.20;;;10.90;99.90;;;;;;1894033;75;21191;-75
2023/04/15 11:12:09;;;;;;;0.20;0.20;;;11.00;99.90;;;;;;1873334;75;21476;-76
2023/04/15 11:17:39;;;;;;;0.90;0.50;;;11.70;99.90;;;;;;1961006;72;22206;-77
2023/04/15 11:20:32;;;;;;;0.80;0.50;;;12.00;99.90;;;;;;1916758;75;21183;-76
2023/04/15 11:23:29;;;;;;;0.40;0.30;;;12.00;99.90;;;;;;1939606;73;21150;-78
2023/04/15 11:26:22;;;;;;;0.28;0.20;;;12.00;99.90;;;;;;1917100;75;21095;-84
2023/04/15 11:29:20;;;;;;;0.20;0.20;;;12.00;99.90;;;;;;1916655;75;21126;-84
2023/04/15 11:32:11;;;;;;;0.23;0.20;;;11.90;99.90;;;;;;1917035;73;21052;-82
2023/04/15 11:35:03;;;;;;;1.35;0.42;;;11.80;99.90;;;;;;1933305;73;21405;-82
2023/04/15 11:37:55;;;;;;;0.57;0.30;;;11.70;99.90;;;;;;1916914;75;21135;-83
2023/04/15 11:40:47;;;;;;;0.68;0.30;;;11.60;99.90;;;;;;1917054;75;21031;-81
2023/04/15 11:43:40;;;;;;;0.93;0.40;;;11.60;99.90;;;;;;1916831;75;21139;-81
2023/04/15 11:46:32;;;;;;;0.37;0.30;;;11.50;99.90;;;;;;1928874;73;21055;-81
2023/04/15 11:49:32;;;;;;;0.68;0.30;;;11.20;99.90;;;;;;1939501;73;21151;-83
2023/04/15 11:52:24;;;;;;;0.10;0.10;;;10.60;99.90;;;;;;1917520;75;21092;-88
2023/04/15 11:55:16;;;;;;;0.23;0.10;;;9.00;99.90;;;;;;1917153;75;21160;-88
2023/04/15 12:00:54;;;;;;;0.40;0.20;;;7.80;99.90;;;;;;1941904;72;22190;-88
2023/04/15 12:03:47;;;;;;;0.20;0.13;;;7.50;99.90;;;;;;1905582;75;21095;-88
2023/04/15 12:06:40;;;;;;;0.10;0.10;;;7.40;99.90;;;;;;1911994;75;21094;-87
2023/04/15 12:09:32;;;;;;;0.17;0.10;;;7.30;99.90;;;;;;1897201;75;21114;-88
2023/04/15 12:12:25;;;;;;;0.20;0.10;;;7.30;99.90;;;;;;1916291;75;21083;-87
2023/04/15 12:15:17;;;;;;;0.10;0.10;;;7.30;99.90;;;;;;1916194;75;21051;-87
2023/04/15 12:18:17;;;;;;;0.10;0.10;;;7.30;99.90;;;;;;1907153;75;21106;-88
2023/04/15 12:21:12;;;;;;;0.08;0.00;;;7.40;99.90;;;;;;1913324;75;21105;-87
2023/04/15 12:24:06;;;;;;;0.10;0.10;;;7.60;99.90;;;;;;1914041;75;21107;-86
2023/04/15 12:27:00;;;;;;;0.00;0.00;;;7.60;99.90;;;;;;1915669;75;21055;-86
2023/04/15 12:29:53;;;;;;;0.23;0.10;;;7.60;99.90;;;;;;1915574;75;21175;-85
2023/04/15 12:32:46;;;;;;;0.40;0.10;;;7.60;99.90;;;;;;1914070;75;21134;-86
2023/04/15 12:35:37;;;;;;;0.10;0.07;;;7.60;99.90;;;;;;1899913;75;21074;-87
2023/04/15 12:38:31;;;;;;;0.13;0.10;;;7.90;99.90;;;;;;1914678;75;21119;-86
2023/04/15 12:41:24;;;;;;;0.30;0.10;;;8.00;99.90;;;;;;1912816;75;21221;-86
2023/04/15 12:44:15;;;;;;;0.00;0.00;;;8.10;99.90;;;;;;1906125;75;21148;-86
2023/04/15 12:47:08;;;;;;;0.50;0.10;;;8.20;99.90;;;;;;1916126;75;21055;-88
2023/04/15 12:50:00;;;;;;;0.20;0.20;;;8.40;99.90;;;;;;1915165;75;21102;-88
2023/04/15 12:52:51;;;;;;;1.17;0.10;;;8.60;99.90;;;;;;1916643;75;21172;-89
2023/04/15 12:55:43;;;;;;;0.30;0.20;;;8.70;99.90;;;;;;1915922;75;21098;-88
2023/04/15 12:58:35;;;;;;;0.72;0.15;;;8.70;99.90;;;;;;1914305;75;21143;-89
2023/04/15 13:01:27;;;;;;;0.20;0.20;;;8.80;99.90;;;;;;1925130;74;21191;-89
2023/04/15 13:04:19;;;;;;;0.57;0.20;;;8.90;99.90;;;;;;1926041;74;21215;-89
2023/04/15 13:07:12;;;;;;;0.33;0.20;;;8.90;99.90;;;;;;1926817;74;21214;-90
2023/04/15 13:10:03;;;;;;;1.17;0.35;;;9.00;99.90;;;;;;1927293;74;21164;-90
2023/04/15 13:12:55;;;;;;;0.20;0.10;;;9.00;99.90;;;;;;1923279;74;21105;-91
2023/04/15 13:15:47;;;;;;;0.55;0.35;;;9.10;99.90;;;;;;1919668;75;21131;-91
2023/04/15 13:18:38;;;;;;;0.68;0.30;;;9.20;99.90;;;;;;1920039;75;21081;-92
2023/04/15 13:21:31;;;;;;;0.62;0.30;;;9.20;99.90;;;;;;1919819;75;21125;-94
2023/04/15 13:24:22;;;;;;;0.30;0.30;;;9.10;99.90;;;;;;1920233;75;21087;-92
2023/04/15 13:27:14;;;;;;;0.37;0.15;;;9.10;99.90;;;;;;1920313;75;21125;-94
2023/04/15 13:30:07;;;;;;;0.88;0.30;;;9.00;99.90;;;;;;1920285;75;21356;-94
2023/04/15 13:32:59;;;;;;;0.42;0.30;;;8.80;99.90;;;;;;1920559;75;21133;-94
2023/04/15 13:35:51;;;;;;;0.40;0.13;;;8.70;99.90;;;;;;1922215;75;21133;-95
2023/04/15 13:38:43;;;;;;;4.67;0.20;;;8.60;99.90;;;;;;1922710;75;21135;-94
2023/04/15 13:41:34;;;;;;;0.10;0.10;;;8.80;99.90;;;;;;1922649;75;21090;-93
2023/04/15 13:44:26;;;;;;;0.75;0.28;;;8.90;99.90;;;;;;1925600;74;21090;-93
2023/04/15 13:47:17;;;;;;;0.42;0.10;;;8.90;99.90;;;;;;1922371;74;21089;-93
2023/04/15 13:50:10;;;;;;;0.10;0.10;;;8.90;99.90;;;;;;1919664;75;21220;-91
2023/04/15 13:53:02;;;;;;;0.40;0.23;;;8.90;99.90;;;;;;1919828;75;21103;-92
2023/04/15 13:55:53;;;;;;;1.32;0.30;;;8.90;99.90;;;;;;1919973;75;21105;-93
2023/04/15 13:58:45;;;;;;;1.15;0.40;;;9.00;99.90;;;;;;1920027;75;21098;-92
2023/04/15 14:01:37;;;;;;;0.68;0.47;;;8.90;99.90;;;;;;1919939;74;21086;-92
2023/04/15 14:04:28;;;;;;;0.57;0.20;;;8.70;99.90;;;;;;1919751;75;21115;-93
2023/04/15 14:07:20;;;;;;;0.30;0.20;;;8.70;99.90;;;;;;1920749;75;21223;-92
2023/04/15 14:10:11;;;;;;;2.30;0.15;;;8.70;99.90;;;;;;1921111;75;21101;-93
2023/04/15 14:13:03;;;;;;;0.62;0.30;;;8.60;99.90;;;;;;1924531;74;21130;-94
2023/04/15 14:15:55;;;;;;;0.20;0.20;;;8.50;99.90;;;;;;1927196;74;21075;-93
2023/04/15 14:18:47;;;;;;;0.85;0.30;;;8.50;99.90;;;;;;1926533;74;21168;-92
2023/04/15 14:21:39;;;;;;;0.37;0.10;;;8.50;99.90;;;;;;1926621;74;21124;-95
2023/04/15 14:24:32;;;;;;;0.40;0.30;;;8.50;99.90;;;;;;1927082;74;21119;-94
2023/04/15 14:27:23;;;;;;;0.57;0.30;;;8.50;99.90;;;;;;1893619;76;21165;-94
2023/04/15 14:30:15;;;;;;;0.72;0.37;;;8.40;99.90;;;;;;1894421;76;21094;-94
2023/04/15 14:33:16;;;;;;;0.62;0.30;;;8.40;99.90;;;;;;1894645;76;21051;-95
2023/04/15 14:36:15;;;;;;;;;;;8.30;99.90;;;;;;1897813;76;21197;-94
2023/04/15 14:39:15;;;;;;;0.40;0.10;;;8.20;99.90;;;;;;1893845;76;20173;-93
2023/04/15 14:42:06;;;;;;;0.30;0.30;;;8.20;99.90;;;;;;1894501;76;21155;-92
2023/04/15 14:44:58;;;;;;;0.47;0.40;;;8.20;99.90;;;;;;1894182;76;21066;-92
2023/04/15 14:47:49;;;;;;;0.70;0.40;;;8.40;99.90;;;;;;1894037;76;21152;-93
2023/04/15 14:50:41;;;;;;;1.62;0.30;;;8.40;99.90;;;;;;1894911;76;21068;-94
2023/04/15 14:53:33;;;;;;;0.13;0.10;;;8.50;99.90;;;;;;1896824;76;21110;-94
2023/04/15 15:00:38;;;;;;;0.20;0.20;;;8.50;99.90;;;;;;1895448;76;21070;-96
2023/04/15 15:03:35;;;;;;;0.40;0.20;;;8.70;99.90;;;;;;1895665;75;21129;-94
2023/04/15 15:06:27;;;;;;;0.57;0.40;;;8.70;99.90;;;;;;1894706;76;21123;-95
2023/04/15 15:09:18;;;;;;;1.87;0.45;;;8.70;99.90;;;;;;1894225;76;21087;-95
2023/04/15 15:12:10;;;;;;;0.80;0.50;;;8.70;99.90;;;;;;1894581;76;21046;-94
2023/04/15 15:15:04;;;;;;;1.22;0.40;;;8.70;99.90;;;;;;1894615;76;21142;-94
2023/04/15 15:17:57;;;;;;;0.55;0.47;;;8.80;99.90;;;;;;1894500;76;21232;-93
2023/04/15 15:20:49;;;;;;;0.80;0.40;;;8.60;99.90;;;;;;1894711;76;21091;-93
2023/04/15 15:23:41;;;;;;;0.57;0.40;;;8.70;99.90;;;;;;1894791;76;21132;-94
2023/04/15 15:26:32;;;;;;;0.42;0.20;;;8.60;99.90;;;;;;1894065;76;21119;-93
2023/04/15 15:29:48;;;;;;;1.55;0.30;;;8.60;99.90;;;;;;1893890;76;21093;-93
2023/04/15 15:32:41;;;;;;;0.45;0.28;;;8.70;99.90;;;;;;1914079;74;21115;-93
2023/04/15 15:35:33;;;;;;;0.65;0.20;;;8.60;99.90;;;;;;1894181;76;21051;-94
2023/04/15 15:38:25;;;;;;;0.57;0.30;;;8.60;99.90;;;;;;1894832;76;21067;-96
2023/04/15 15:41:18;;;;;;;0.75;0.30;;;8.60;99.90;;;;;;1895241;76;21167;-93
2023/04/15 15:44:11;;;;;;;2.02;0.30;;;8.50;99.90;;;;;;1894743;76;21090;-91
2023/04/15 15:47:04;;;;;;;1.47;0.53;;;8.50;99.90;;;;;;1894421;76;21128;-93
2023/04/15 15:49:56;;;;;;;0.53;0.53;;;8.50;99.90;;;;;;1895946;76;21117;-91
2023/04/15 15:52:47;;;;;;;0.42;0.33;;;8.40;99.90;;;;;;1922571;74;21047;-93
2023/04/15 15:55:39;;;;;;;1.35;0.40;;;8.40;99.90;;;;;;1924943;74;21149;-90
2023/04/15 15:58:31;;;;;;;0.40;0.33;;;8.40;99.90;;;;;;1911407;74;21106;-91
2023/04/15 16:05:15;;;;;;;1.02;0.30;;;8.40;99.90;;;;;;2011865;71;22203;-92
2023/04/15 16:08:07;;;;;;;0.85;0.40;;;8.40;99.90;;;;;;1953824;73;21101;-91
2023/04/15 16:10:59;;;;;;;0.30;0.20;;;8.30;99.90;;;;;;2033415;70;21140;-94
2023/04/15 16:13:51;;;;;;;0.30;0.30;;;8.30;99.90;;;;;;2035374;70;21219;-91
2023/04/15 16:16:42;;;;;;;0.50;0.33;;;8.30;99.90;;;;;;2031662;70;21141;-92
2023/04/15 16:19:33;;;;;;;0.60;0.45;;;8.40;99.90;;;;;;2031843;70;21031;-91
2023/04/15 16:22:25;;;;;;;0.62;0.40;;;8.40;99.90;;;;;;2033457;70;21062;-90
2023/04/15 16:25:15;;;;;;;1.25;0.40;;;8.50;99.90;;;;;;2033278;70;21070;-90
2023/04/15 16:28:07;;;;;;;0.53;0.30;;;8.50;99.90;;;;;;2039312;70;21147;-90
2023/04/15 16:31:00;;;;;;;0.62;0.40;;;8.60;99.90;;;;;;2055238;69;21122;-91
2023/04/15 16:33:54;;;;;;;0.50;0.25;;;8.60;99.90;;;;;;2052697;69;21057;-89
2023/04/15 16:36:45;;;;;;;0.72;0.40;;;8.60;99.90;;;;;;2057643;69;21105;-90
2023/04/15 16:39:37;;;;;;;0.45;0.30;;;8.60;99.90;;;;;;2034256;70;21078;-91
2023/04/15 16:42:29;;;;;;;0.20;0.20;;;8.60;99.90;;;;;;2057106;69;21158;-91
2023/04/15 16:45:21;;;;;;;0.70;0.50;;;8.50;99.90;;;;;;2051747;69;21081;-89
2023/04/15 16:48:12;;;;;;;1.60;0.53;;;8.50;99.90;;;;;;2032797;70;21078;-88
2023/04/15 16:51:05;;;;;;;0.40;0.40;;;8.50;99.90;;;;;;2033305;70;21066;-86
2023/04/15 16:53:56;;;;;;;0.55;0.40;;;8.50;99.90;;;;;;2035871;70;21148;-89
2023/04/15 16:56:48;;;;;;;0.53;0.53;;;8.50;99.90;;;;;;2035338;70;21119;-91
2023/04/15 16:59:40;;;;;;;0.20;0.20;;;8.60;99.90;;;;;;2031559;70;21156;-88
2023/04/15 17:02:33;;;;;;;0.45;0.20;;;8.70;99.90;;;;;;2039276;69;21139;-89
2023/04/15 17:05:26;;;;;;;0.28;0.20;;;8.60;99.90;;;;;;2044016;69;21175;-90
2023/04/15 17:08:18;;;;;;;0.62;0.30;;;8.60;99.90;;;;;;2048176;69;21034;-89
2023/04/15 17:11:10;;;;;;;0.20;0.20;;;8.70;99.90;;;;;;2031805;70;21103;-90
2023/04/15 17:14:02;;;;;;;0.37;0.23;;;8.70;99.90;;;;;;2031655;70;21450;-87
2023/04/15 17:19:36;;;;;;;1.37;0.40;;;8.60;99.90;;;;;;1956947;72;22143;-85
2023/04/15 17:22:29;;;;;;;0.47;0.30;;;8.50;99.90;;;;;;1877189;75;21077;-84
2023/04/15 17:25:20;;;;;;;0.33;0.23;;;8.40;99.90;;;;;;1880194;75;21124;-84
2023/04/15 17:28:12;;;;;;;0.60;0.40;;;8.30;99.90;;;;;;1882853;75;21118;-84